Terminal Aerodrome Forecast
Issued by NWS

Current Version | Previous Version | Graphics & Text | Print | Product List | Glossary On
Versions: 1 2 3 4 5 6 7 8 9 10 11 12 13 14 15 16 17 18 19 20 21 22 23 24 25 26 27 28 29 30 31 32 33 34 35 36 37 38 39 40 41 42 43 44 45 46 47 48
095
FTUS41 KRNK 252321
TAFLWB
TAF
KLWB 252321Z 2600/2624 27004KT P6SM SKC
     FM260500 00000KT 4SM BR SCT025
     FM260900 00000KT 1/4SM FG VV001
     FM261300 30003KT P6SM SCT015
     FM261700 29005KT P6SM SCT050=

USA.gov is the U.S. government's official web portal to all federal, state and local government web resources and services.